createdAt,value
2023-03-26T00:01:07.631Z,100.00
2023-03-26T00:03:37.307Z,100.00
2023-03-26T00:06:22.613Z,100.00
2023-03-26T00:08:51.111Z,100.00
2023-03-26T00:11:21.501Z,100.00
2023-03-26T00:13:50.250Z,100.00
2023-03-26T00:16:19.542Z,100.00
2023-03-26T00:18:48.901Z,100.00
2023-03-26T00:21:18.075Z,100.00
2023-03-26T00:23:48.987Z,100.00
2023-03-26T00:26:18.900Z,100.00
2023-03-26T00:28:47.204Z,100.00
2023-03-26T00:31:15.990Z,100.00
2023-03-26T00:33:44.474Z,100.00
2023-03-26T00:36:16.551Z,100.00
2023-03-26T00:38:46.788Z,100.00
2023-03-26T00:41:22.674Z,100.00
2023-03-26T00:43:51.975Z,100.00
2023-03-26T00:46:20.623Z,100.00
2023-03-26T00:48:48.814Z,100.00
2023-03-26T00:51:18.504Z,100.00
2023-03-26T00:53:47.337Z,100.00
2023-03-26T00:56:17.250Z,100.00
2023-03-26T00:58:46.166Z,100.00
2023-03-26T01:01:16.247Z,100.00
2023-03-26T01:04:04.749Z,100.00
2023-03-26T01:06:38.228Z,100.00
2023-03-26T01:09:13.479Z,100.00
2023-03-26T01:11:43.225Z,100.00
2023-03-26T01:14:13.313Z,100.00
2023-03-26T01:16:44.820Z,100.00
2023-03-26T01:19:16.610Z,100.00
2023-03-26T01:21:47.203Z,100.00
2023-03-26T01:24:16.839Z,100.00
2023-03-26T01:26:52.657Z,100.00
2023-03-26T01:29:22.910Z,100.00
2023-03-26T01:31:55.603Z,100.00
2023-03-26T01:34:30.932Z,100.00
2023-03-26T01:37:02.150Z,100.00
2023-03-26T01:39:38.815Z,100.00
2023-03-26T01:42:09.399Z,100.00
2023-03-26T01:44:39.987Z,100.00
2023-03-26T01:47:09.067Z,100.00
2023-03-26T01:49:37.411Z,100.00
2023-03-26T01:52:07.612Z,100.00
2023-03-26T01:54:37.169Z,100.00
2023-03-26T01:57:11.452Z,99.15
2023-03-26T01:59:50.237Z,98.14
2023-03-26T02:02:22.835Z,97.64
2023-03-26T02:04:54.254Z,97.23
2023-03-26T02:07:26.311Z,96.87
2023-03-26T02:09:58.665Z,96.90
2023-03-26T02:12:27.934Z,97.51
2023-03-26T02:14:56.097Z,96.55
2023-03-26T02:17:24.578Z,96.82
2023-03-26T02:19:54.161Z,96.90
2023-03-26T02:22:22.586Z,96.57
2023-03-26T02:24:51.264Z,95.82
2023-03-26T02:27:21.436Z,96.34
2023-03-26T02:29:50.221Z,97.44
2023-03-26T02:32:20.054Z,98.26
2023-03-26T02:34:51.274Z,97.37
2023-03-26T02:37:19.693Z,98.33
2023-03-26T02:39:47.900Z,98.48
2023-03-26T02:42:16.252Z,98.20
2023-03-26T02:44:45.708Z,98.38
2023-03-26T02:47:14.004Z,98.60
2023-03-26T02:49:42.261Z,98.32
2023-03-26T02:52:10.837Z,98.46
2023-03-26T02:54:39.401Z,98.52
2023-03-26T02:57:07.837Z,98.54
2023-03-26T02:59:36.523Z,98.16
2023-03-26T03:02:06.956Z,98.89
2023-03-26T03:04:35.064Z,98.37
2023-03-26T03:07:03.178Z,98.10
2023-03-26T03:09:31.358Z,97.50
2023-03-26T03:11:59.542Z,96.98
2023-03-26T03:14:27.771Z,96.67
2023-03-26T03:16:56.193Z,96.31
2023-03-26T03:19:25.821Z,95.56
2023-03-26T03:21:53.984Z,95.13
2023-03-26T03:24:23.554Z,95.80
2023-03-26T03:26:56.788Z,96.01
2023-03-26T03:29:25.620Z,95.92
2023-03-26T03:31:53.734Z,96.99
2023-03-26T03:34:22.239Z,97.45
2023-03-26T03:36:51.924Z,97.96
2023-03-26T03:39:20.063Z,99.40
2023-03-26T03:41:49.211Z,99.02
2023-03-26T03:44:17.739Z,99.21
2023-03-26T03:46:46.029Z,99.51
2023-03-26T03:49:14.348Z,99.34
2023-03-26T03:51:42.497Z,99.96
2023-03-26T03:54:12.204Z,100.00
2023-03-26T03:56:40.455Z,100.00
2023-03-26T03:59:10.182Z,100.00
2023-03-26T04:01:38.588Z,100.00
2023-03-26T04:04:06.798Z,100.00
2023-03-26T04:06:35.080Z,100.00
2023-03-26T04:09:03.794Z,100.00
2023-03-26T04:11:33.268Z,100.00
2023-03-26T04:14:01.460Z,100.00
2023-03-26T04:16:29.661Z,100.00
2023-03-26T04:18:58.304Z,100.00
2023-03-26T04:21:30.266Z,100.00
2023-03-26T04:23:58.540Z,100.00
2023-03-26T04:26:30.693Z,100.00
2023-03-26T04:29:02.630Z,100.00
2023-03-26T04:31:31.526Z,100.00
2023-03-26T04:34:01.645Z,100.00
2023-03-26T04:36:32.114Z,100.00
2023-03-26T04:39:05.087Z,99.81
2023-03-26T04:41:33.505Z,98.95
2023-03-26T04:44:03.103Z,97.79
2023-03-26T04:46:33.636Z,97.78
2023-03-26T04:49:02.630Z,97.04
2023-03-26T04:51:35.405Z,97.63
2023-03-26T04:54:04.023Z,97.48
2023-03-26T04:56:38.260Z,97.19
2023-03-26T04:59:10.173Z,96.88
2023-03-26T05:01:40.031Z,97.30
2023-03-26T05:04:08.311Z,97.13
2023-03-26T05:06:37.962Z,97.29
2023-03-26T05:09:06.237Z,97.53
2023-03-26T05:11:34.358Z,97.45
2023-03-26T05:14:02.860Z,98.05
2023-03-26T05:16:33.850Z,98.29
2023-03-26T05:19:02.332Z,98.33
2023-03-26T05:21:30.572Z,99.26
2023-03-26T05:23:58.730Z,98.42
2023-03-26T05:26:27.127Z,99.01
2023-03-26T05:28:55.463Z,98.94
2023-03-26T05:31:23.772Z,98.16
2023-03-26T05:33:54.939Z,98.18
2023-03-26T05:36:24.271Z,97.90
2023-03-26T05:38:52.589Z,98.14
2023-03-26T05:41:20.897Z,98.01
2023-03-26T05:43:49.115Z,97.87
2023-03-26T05:46:18.045Z,97.01
2023-03-26T05:48:46.665Z,96.71
2023-03-26T05:51:16.580Z,95.92
2023-03-26T05:53:44.787Z,95.43
2023-03-26T05:56:13.334Z,95.59
2023-03-26T05:58:41.964Z,95.27
2023-03-26T06:01:17.055Z,95.68
2023-03-26T06:03:46.684Z,95.66
2023-03-26T06:06:17.619Z,95.73
2023-03-26T06:09:02.362Z,95.48
2023-03-26T06:11:31.666Z,95.65
2023-03-26T06:13:59.898Z,95.56
2023-03-26T06:16:28.505Z,95.50
2023-03-26T06:18:57.709Z,95.19
2023-03-26T06:21:27.534Z,93.91
2023-03-26T06:23:55.895Z,93.81
2023-03-26T06:26:24.459Z,93.21
2023-03-26T06:28:52.712Z,92.76
2023-03-26T06:31:20.985Z,92.08
2023-03-26T06:33:49.598Z,92.17
2023-03-26T06:36:17.875Z,92.17
2023-03-26T06:38:47.518Z,91.79
2023-03-26T06:41:15.796Z,91.42
2023-03-26T06:43:43.965Z,91.43
2023-03-26T06:46:12.279Z,91.65
2023-03-26T06:48:41.999Z,91.81
2023-03-26T06:51:10.591Z,92.02
2023-03-26T06:53:38.807Z,91.93
2023-03-26T06:56:09.344Z,92.83
2023-03-26T06:58:37.769Z,92.54
2023-03-26T07:01:06.365Z,92.51
2023-03-26T07:03:34.740Z,92.63
2023-03-26T07:06:02.884Z,93.06
2023-03-26T07:08:31.780Z,93.87
2023-03-26T07:10:59.926Z,94.43
2023-03-26T07:13:29.597Z,95.16
2023-03-26T07:15:57.752Z,94.67
2023-03-26T07:18:26.021Z,94.98
2023-03-26T07:20:54.770Z,95.48
2023-03-26T07:23:23.343Z,95.60
2023-03-26T07:25:54.890Z,95.64
2023-03-26T07:28:26.381Z,95.38
2023-03-26T07:31:01.402Z,96.35
2023-03-26T07:33:32.378Z,97.35
2023-03-26T07:36:04.024Z,97.65
2023-03-26T07:38:38.004Z,97.79
2023-03-26T07:41:10.877Z,97.13
2023-03-26T07:43:47.690Z,97.91
2023-03-26T07:46:18.331Z,97.87
2023-03-26T07:48:48.276Z,98.21
2023-03-26T07:51:18.799Z,97.81
2023-03-26T07:53:47.411Z,98.90
2023-03-26T07:56:17.590Z,99.18
2023-03-26T07:58:50.506Z,99.21
2023-03-26T08:01:24.651Z,98.30
2023-03-26T08:04:24.041Z,98.56
2023-03-26T08:06:57.085Z,99.16
2023-03-26T08:09:29.801Z,98.76
2023-03-26T08:11:59.012Z,99.04
2023-03-26T08:14:43.249Z,98.73
2023-03-26T08:17:14.170Z,99.79
2023-03-26T08:19:51.855Z,99.79
2023-03-26T08:22:26.181Z,99.37
2023-03-26T08:25:07.043Z,99.19
2023-03-26T08:27:38.658Z,99.41
2023-03-26T08:30:16.288Z,98.93
2023-03-26T08:32:51.189Z,98.74
2023-03-26T08:35:19.651Z,98.97
2023-03-26T08:37:47.823Z,99.21
2023-03-26T08:40:20.791Z,99.59
2023-03-26T08:43:07.130Z,100.00
2023-03-26T08:45:51.339Z,100.00
2023-03-26T08:48:43.494Z,100.00
2023-03-26T08:51:32.592Z,100.00
2023-03-26T08:54:19.314Z,100.00
2023-03-26T08:56:56.734Z,100.00
2023-03-26T08:59:45.705Z,100.00
2023-03-26T09:02:33.639Z,100.00
2023-03-26T09:05:21.224Z,100.00
2023-03-26T09:08:05.069Z,100.00
2023-03-26T09:10:51.683Z,100.00
2023-03-26T09:13:40.374Z,100.00
2023-03-26T09:16:22.195Z,100.00
2023-03-26T09:19:08.284Z,100.00
2023-03-26T09:21:46.027Z,100.00
2023-03-26T09:24:27.562Z,100.00
2023-03-26T09:27:01.239Z,100.00
2023-03-26T09:29:57.617Z,100.00
2023-03-26T09:32:50.305Z,100.00
2023-03-26T09:35:34.268Z,100.00
2023-03-26T09:38:12.200Z,100.00
2023-03-26T09:40:45.254Z,100.00
2023-03-26T09:43:30.080Z,100.00
2023-03-26T09:46:04.872Z,100.00
2023-03-26T09:48:47.351Z,100.00
2023-03-26T09:51:27.372Z,100.00
2023-03-26T09:54:06.931Z,100.00
2023-03-26T09:56:41.997Z,100.00
2023-03-26T09:59:22.501Z,100.00
2023-03-26T10:01:54.683Z,100.00
2023-03-26T10:04:40.102Z,100.00
2023-03-26T10:07:16.510Z,100.00
2023-03-26T10:09:51.301Z,100.00
2023-03-26T10:12:26.481Z,100.00
2023-03-26T10:15:01.315Z,100.00
2023-03-26T10:17:38.422Z,100.00
2023-03-26T10:20:17.676Z,100.00
2023-03-26T10:22:52.288Z,100.00
2023-03-26T10:25:29.970Z,100.00
2023-03-26T10:28:05.221Z,100.00
2023-03-26T10:30:43.863Z,100.00
2023-03-26T10:33:24.586Z,100.00
2023-03-26T10:36:03.196Z,100.00
2023-03-26T10:38:42.190Z,100.00
2023-03-26T10:41:14.567Z,100.00
2023-03-26T10:44:07.491Z,100.00
2023-03-26T10:46:57.875Z,100.00
2023-03-26T10:49:34.531Z,100.00
2023-03-26T10:52:04.238Z,100.00
2023-03-26T10:54:46.686Z,100.00
2023-03-26T10:57:21.851Z,100.00
2023-03-26T10:59:50.288Z,100.00
2023-03-26T11:02:30.213Z,100.00
2023-03-26T11:05:10.632Z,100.00
2023-03-26T11:07:42.946Z,98.61
2023-03-26T11:10:15.959Z,97.85
2023-03-26T11:12:45.755Z,97.97
2023-03-26T11:15:19.278Z,96.55
2023-03-26T11:17:51.718Z,97.30
2023-03-26T11:20:23.550Z,93.67
2023-03-26T11:23:00.291Z,94.04
2023-03-26T11:25:36.841Z,94.07
2023-03-26T11:28:18.611Z,93.88
2023-03-26T11:30:49.605Z,94.07
2023-03-26T11:33:19.857Z,93.59
2023-03-26T11:35:53.822Z,91.92
2023-03-26T11:38:24.310Z,91.58
2023-03-26T11:40:55.736Z,93.01
2023-03-26T11:43:27.023Z,93.91
2023-03-26T11:45:55.604Z,93.47
2023-03-26T11:48:25.713Z,94.23
2023-03-26T11:50:58.125Z,92.67
2023-03-26T11:53:28.968Z,94.59
2023-03-26T11:56:01.089Z,95.77
2023-03-26T11:58:32.111Z,94.22
2023-03-26T12:01:04.407Z,93.70
2023-03-26T12:03:33.282Z,93.27
2023-03-26T12:06:02.774Z,92.82
2023-03-26T12:08:32.983Z,92.31
2023-03-26T12:11:04.421Z,92.77
2023-03-26T12:13:37.640Z,91.85
2023-03-26T12:16:09.850Z,89.38
2023-03-26T12:18:39.782Z,88.89
2023-03-26T12:21:11.482Z,88.69
2023-03-26T12:23:44.392Z,89.18
2023-03-26T12:26:15.460Z,88.23
2023-03-26T12:28:47.541Z,89.35
2023-03-26T12:31:18.191Z,91.80
2023-03-26T12:33:52.569Z,93.43
2023-03-26T12:36:26.275Z,92.35
2023-03-26T12:39:16.635Z,93.76
2023-03-26T12:43:40.449Z,95.69
2023-03-26T12:44:51.012Z,92.81
2023-03-26T12:47:58.924Z,93.95
2023-03-26T12:50:14.448Z,93.25
2023-03-26T12:52:53.582Z,94.50
2023-03-26T12:55:38.142Z,93.79
2023-03-26T12:58:14.131Z,93.00
2023-03-26T13:00:47.351Z,93.73
2023-03-26T13:03:27.665Z,93.74
2023-03-26T13:06:04.065Z,91.20
2023-03-26T13:08:44.589Z,89.67
2023-03-26T13:11:19.366Z,86.68
2023-03-26T13:13:56.460Z,84.27
2023-03-26T13:16:28.793Z,81.33
2023-03-26T13:19:00.365Z,78.85
2023-03-26T13:21:32.290Z,77.36
2023-03-26T13:24:08.332Z,70.18
2023-03-26T13:26:41.161Z,71.94
2023-03-26T13:29:12.181Z,71.65
2023-03-26T13:31:44.932Z,72.36
2023-03-26T13:34:17.965Z,74.48
2023-03-26T13:36:53.061Z,75.39
2023-03-26T13:39:37.990Z,78.98
2023-03-26T13:42:13.887Z,79.64
2023-03-26T13:44:48.233Z,79.53
2023-03-26T13:47:19.641Z,79.64
2023-03-26T13:49:50.845Z,82.23
2023-03-26T13:52:22.953Z,80.32
2023-03-26T13:54:57.038Z,80.75
2023-03-26T13:57:29.431Z,78.85
2023-03-26T14:00:00.691Z,81.26
2023-03-26T14:02:32.128Z,82.32
2023-03-26T14:05:04.583Z,83.15
2023-03-26T14:07:35.116Z,83.45
2023-03-26T14:10:08.361Z,81.12
2023-03-26T14:12:49.217Z,81.76
2023-03-26T14:15:20.412Z,83.40
2023-03-26T14:17:51.146Z,84.38
2023-03-26T14:20:33.610Z,87.76
2023-03-26T14:23:08.888Z,86.79
2023-03-26T14:25:50.822Z,88.53
2023-03-26T14:28:32.792Z,89.20
2023-03-26T14:31:10.005Z,89.79
2023-03-26T14:33:54.268Z,86.61
2023-03-26T14:36:26.781Z,88.31
2023-03-26T14:39:05.706Z,89.26
2023-03-26T14:41:42.939Z,90.49
2023-03-26T14:44:29.850Z,92.86
2023-03-26T14:47:17.936Z,89.51
2023-03-26T14:49:51.786Z,89.64
2023-03-26T14:52:22.198Z,90.27
2023-03-26T14:54:51.638Z,88.87
2023-03-26T14:57:32.481Z,88.15
2023-03-26T15:00:23.568Z,88.16
2023-03-26T15:03:11.878Z,90.05
2023-03-26T15:06:01.569Z,89.80
2023-03-26T15:08:51.953Z,90.69
2023-03-26T15:11:27.502Z,89.71
2023-03-26T15:14:14.213Z,89.43
2023-03-26T15:17:00.518Z,89.50
2023-03-26T15:19:53.352Z,89.95
2023-03-26T15:22:34.041Z,91.17
2023-03-26T15:25:21.283Z,91.24
2023-03-26T15:28:12.322Z,90.79
2023-03-26T15:30:57.889Z,91.33
2023-03-26T15:33:57.116Z,90.94
2023-03-26T15:36:44.612Z,91.22
2023-03-26T15:39:27.833Z,89.48
2023-03-26T15:41:59.376Z,90.68
2023-03-26T15:44:53.267Z,91.76
2023-03-26T15:47:41.045Z,92.06
2023-03-26T15:50:16.647Z,92.47
2023-03-26T15:52:48.948Z,92.14
2023-03-26T15:55:27.740Z,92.34
2023-03-26T15:58:01.418Z,91.72
2023-03-26T16:00:31.981Z,90.77
2023-03-26T16:03:14.013Z,90.55
2023-03-26T16:05:52.543Z,91.86
2023-03-26T16:08:25.783Z,92.48
2023-03-26T16:10:56.920Z,90.63
2023-03-26T16:13:31.259Z,90.39
2023-03-26T16:16:16.297Z,89.89
2023-03-26T16:18:45.881Z,90.16
2023-03-26T16:21:37.310Z,90.48
2023-03-26T16:24:18.825Z,90.94
2023-03-26T16:26:55.578Z,91.00
2023-03-26T16:29:28.365Z,89.62
2023-03-26T16:32:05.107Z,88.93
2023-03-26T16:34:42.076Z,87.79
2023-03-26T16:37:37.552Z,87.57
2023-03-26T16:40:23.518Z,87.66
2023-03-26T16:42:55.927Z,87.35
2023-03-26T16:45:30.527Z,87.05
2023-03-26T16:48:03.327Z,86.26
2023-03-26T16:50:37.222Z,86.67
2023-03-26T16:53:13.512Z,86.70
2023-03-26T16:55:44.189Z,86.66
2023-03-26T16:58:16.971Z,85.86
2023-03-26T17:00:49.209Z,84.86
2023-03-26T17:03:24.425Z,84.05
2023-03-26T17:06:03.572Z,83.67
2023-03-26T17:08:37.324Z,84.08
2023-03-26T17:11:09.577Z,84.01
2023-03-26T17:13:47.186Z,84.56
2023-03-26T17:16:22.220Z,83.98
2023-03-26T17:18:55.693Z,84.45
2023-03-26T17:21:28.835Z,84.83
2023-03-26T17:24:19.131Z,85.86
2023-03-26T17:26:52.169Z,86.06
2023-03-26T17:29:28.125Z,86.11
2023-03-26T17:32:01.517Z,85.48
2023-03-26T17:34:33.889Z,85.91
2023-03-26T17:37:04.381Z,84.27
2023-03-26T17:39:51.520Z,84.00
2023-03-26T17:42:29.060Z,83.92
2023-03-26T17:45:04.411Z,83.02
2023-03-26T17:47:35.895Z,82.30
2023-03-26T17:50:06.356Z,83.39
2023-03-26T17:52:41.541Z,84.08
2023-03-26T17:55:10.854Z,82.28
2023-03-26T17:57:45.412Z,81.09
2023-03-26T18:00:21.687Z,81.05
2023-03-26T18:02:54.175Z,79.90
2023-03-26T18:05:25.737Z,80.32
2023-03-26T18:08:06.123Z,80.54
2023-03-26T18:10:44.069Z,81.63
2023-03-26T18:13:37.462Z,82.52
2023-03-26T18:16:13.580Z,81.80
2023-03-26T18:18:46.438Z,82.68
2023-03-26T18:21:20.957Z,82.67
2023-03-26T18:23:50.669Z,82.98
2023-03-26T18:26:20.873Z,81.70
2023-03-26T18:28:51.538Z,81.00
2023-03-26T18:31:24.778Z,79.86
2023-03-26T18:33:56.893Z,80.57
2023-03-26T18:36:27.633Z,79.74
2023-03-26T18:38:57.341Z,80.09
2023-03-26T18:41:28.306Z,79.91
2023-03-26T18:43:57.349Z,78.10
2023-03-26T18:46:27.088Z,76.50
2023-03-26T18:48:56.772Z,77.60
2023-03-26T18:51:26.762Z,76.92
2023-03-26T18:53:57.172Z,76.02
2023-03-26T18:56:32.332Z,77.35
2023-03-26T18:59:02.368Z,76.87
2023-03-26T19:01:33.473Z,77.36
2023-03-26T19:04:03.982Z,76.07
2023-03-26T19:06:35.686Z,74.70
2023-03-26T19:09:13.478Z,74.67
2023-03-26T19:11:49.571Z,75.33
2023-03-26T19:14:19.060Z,75.13
2023-03-26T19:16:50.340Z,72.56
2023-03-26T19:19:20.542Z,74.32
2023-03-26T19:21:49.411Z,73.98
2023-03-26T19:24:18.926Z,74.51
2023-03-26T19:26:48.340Z,72.55
2023-03-26T19:29:25.468Z,72.10
2023-03-26T19:32:01.672Z,73.14
2023-03-26T19:34:33.307Z,74.24
2023-03-26T19:37:02.823Z,74.44
2023-03-26T19:39:38.750Z,74.82
2023-03-26T19:42:08.403Z,74.33
2023-03-26T19:44:39.570Z,73.35
2023-03-26T19:47:15.890Z,74.73
2023-03-26T19:49:50.954Z,74.28
2023-03-26T19:52:22.077Z,72.69
2023-03-26T19:54:59.373Z,71.17
2023-03-26T19:57:30.049Z,71.46
2023-03-26T19:59:58.407Z,70.14
2023-03-26T20:02:28.660Z,69.20
2023-03-26T20:04:56.999Z,69.32
2023-03-26T20:07:35.886Z,67.17
2023-03-26T20:10:06.174Z,67.49
2023-03-26T20:12:34.324Z,67.91
2023-03-26T20:15:02.879Z,68.21
2023-03-26T20:17:34.960Z,69.04
2023-03-26T20:20:08.148Z,67.71
2023-03-26T20:22:36.455Z,64.79
2023-03-26T20:25:12.039Z,66.02
2023-03-26T20:27:40.536Z,66.37
2023-03-26T20:30:10.518Z,66.19
2023-03-26T20:32:44.344Z,66.44
2023-03-26T20:35:16.283Z,67.36
2023-03-26T20:37:44.723Z,65.71
2023-03-26T20:40:14.089Z,65.90
2023-03-26T20:42:44.869Z,66.23
2023-03-26T20:45:15.459Z,66.55
2023-03-26T20:47:45.114Z,67.25
2023-03-26T20:50:15.321Z,68.30
2023-03-26T20:52:44.650Z,66.84
2023-03-26T20:55:13.575Z,68.58
2023-03-26T20:57:42.774Z,70.07
2023-03-26T21:00:16.661Z,70.16
2023-03-26T21:02:46.531Z,70.53
2023-03-26T21:05:15.620Z,70.27
2023-03-26T21:07:44.635Z,70.87
2023-03-26T21:10:14.056Z,70.77
2023-03-26T21:12:46.126Z,70.98
2023-03-26T21:15:22.910Z,71.77
2023-03-26T21:17:55.004Z,72.16
2023-03-26T21:20:24.648Z,72.68
2023-03-26T21:22:58.238Z,73.42
2023-03-26T21:25:33.405Z,74.11
2023-03-26T21:28:08.981Z,75.36
2023-03-26T21:30:37.445Z,76.04
2023-03-26T21:33:07.227Z,76.60
2023-03-26T21:35:35.834Z,77.09
2023-03-26T21:38:05.078Z,77.43
2023-03-26T21:40:34.173Z,77.66
2023-03-26T21:43:02.670Z,76.75
2023-03-26T21:45:31.152Z,77.44
2023-03-26T21:47:59.500Z,77.30
2023-03-26T21:50:29.532Z,77.19
2023-03-26T21:52:59.081Z,78.18
2023-03-26T21:55:29.103Z,78.36
2023-03-26T21:58:13.453Z,77.83
2023-03-26T22:00:44.991Z,78.07
2023-03-26T22:03:16.893Z,77.92
2023-03-26T22:05:49.260Z,77.83
2023-03-26T22:08:22.877Z,77.05
2023-03-26T22:10:51.530Z,77.82
2023-03-26T22:13:19.679Z,78.57
2023-03-26T22:15:48.150Z,78.34
2023-03-26T22:18:47.545Z,79.13
2023-03-26T22:21:17.061Z,79.65
2023-03-26T22:23:52.738Z,79.59
2023-03-26T22:26:21.878Z,79.45
2023-03-26T22:28:50.492Z,79.71
2023-03-26T22:31:19.050Z,80.65
2023-03-26T22:33:47.292Z,80.09
2023-03-26T22:36:22.466Z,80.55
2023-03-26T22:38:53.094Z,80.76
2023-03-26T22:41:21.815Z,79.90
2023-03-26T22:43:52.026Z,79.99
2023-03-26T22:46:20.793Z,80.58
2023-03-26T22:48:49.300Z,80.39
2023-03-26T22:51:19.918Z,79.35
2023-03-26T22:53:48.151Z,79.08
2023-03-26T22:56:17.119Z,78.32
2023-03-26T22:58:47.277Z,77.96
2023-03-26T23:01:17.759Z,79.02
2023-03-26T23:03:46.627Z,79.00
2023-03-26T23:06:15.287Z,78.90
2023-03-26T23:08:44.859Z,78.34
2023-03-26T23:11:14.276Z,78.06
2023-03-26T23:13:42.799Z,77.42
2023-03-26T23:16:12.596Z,77.98
2023-03-26T23:18:41.117Z,78.07
2023-03-26T23:21:13.728Z,77.60
2023-03-26T23:23:42.118Z,77.87
2023-03-26T23:26:11.930Z,78.83
2023-03-26T23:28:40.813Z,78.88
2023-03-26T23:31:09.956Z,79.31
2023-03-26T23:33:39.071Z,80.43
2023-03-26T23:36:09.297Z,80.76
2023-03-26T23:38:44.061Z,81.26
2023-03-26T23:41:14.979Z,81.46
2023-03-26T23:43:54.021Z,82.28
2023-03-26T23:46:24.297Z,81.77
2023-03-26T23:48:53.105Z,81.49
2023-03-26T23:51:22.293Z,82.83
2023-03-26T23:53:52.504Z,82.44
2023-03-26T23:56:22.118Z,83.20
2023-03-26T23:58:50.357Z,82.69
